Blue Marlin — 9HA4605 — position and weather

sailwx.info

Track history (hours):
 
Tides and Currents Weather Stations Pressure Air Temp Water Temp Dewpoint Dewpoint Depression Visibility Wind Speed Wind Dir Waves Ship Positions

Blue Marlin

Last reported at 2018-Jan-19 21:00 UTC. Time now 2018-Jan-19 21:24 UTC.
Position N 49°59' W 002°54'.

Length 225 m; draft 14 m.

Type: Cargo ship. MMSI: 248314000.

Date/timePositionNaut miles runAvg speedWind from/ knotsBaromVisibWave heightAir tempDewpointWater temp
2018-Jan-19 21:00N 49°59' W 002°54'2 4.0
2018-Jan-19 20:30N 50°00' W 002°51'2 3.8
2018-Jan-19 20:00N 50°01' W 002°49'2 3.1
2018-Jan-19 19:30N 50°01' W 002°46'2 3.2
2018-Jan-19 19:00N 50°01' W 002°44'2 3.5
2018-Jan-19 18:30N 50°02' W 002°41'2 3.3
2018-Jan-19 18:00N 50°02' W 002°39'2 3.9
2018-Jan-19 17:30N 50°03' W 002°36'2 4.7
2018-Jan-19 17:00N 50°03' W 002°32'3 5.1
2018-Jan-19 16:30N 50°04' W 002°28'3 6.1
2018-Jan-19 16:00N 50°05' W 002°24'5 6.5
2018-Jan-19 15:12N 50°06' W 002°16'26 3.5
2018-Jan-19 07:47N 50°13' W 001°37'1 2.6
2018-Jan-19 07:21N 50°13' W 001°35'1 3.3
2018-Jan-19 06:58N 50°14' W 001°33'3 4.3
2018-Jan-19 06:23N 50°14' W 001°29'7 5.4
2018-Jan-19 05:09N 50°16' W 001°19'11 6.5
2018-Jan-19 03:25N 50°19' W 001°02'2 5.6
2018-Jan-19 03:00N 50°20' W 000°59'3 4.2
2018-Jan-19 02:15N 50°20' W 000°54'2 7.4
2018-Jan-19 01:56N 50°21' W 000°50'3 6.5
2018-Jan-19 01:29N 50°22' W 000°46'3 6.0
2018-Jan-19 00:56N 50°23' W 000°41'3 5.8
2018-Jan-19 00:30N 50°24' W 000°37'3 5.1
2018-Jan-18 23:55N 50°24' W 000°33'2 4.6
2018-Jan-18 23:22N 50°25' W 000°29'1 3.8
2018-Jan-18 23:00N 50°25' W 000°27'2 3.4
2018-Jan-18 22:30N 50°26' W 000°24'1 3.0
2018-Jan-18 22:00N 50°26' W 000°22'1 2.6
2018-Jan-18 21:30N 50°27' W 000°20'1 2.3
2018-Jan-18 20:58N 50°27' W 000°18'1 2.3
2018-Jan-18 20:30N 50°27' W 000°16'1 2.4
2018-Jan-18 20:00N 50°28' W 000°15'1 2.3
2018-Jan-18 19:30N 50°28' W 000°13'1 2.8
2018-Jan-18 19:00N 50°28' W 000°11'2 3.0
2018-Jan-18 18:30N 50°29' W 000°08'1 2.2
2018-Jan-18 18:00N 50°29' W 000°07'1 2.7
2018-Jan-18 17:30N 50°29' W 000°05'1 2.9
2018-Jan-18 17:00N 50°30' W 000°03'1 2.2
2018-Jan-18 16:30N 50°30' W 000°01'2 4.8
2018-Jan-18 16:00N 50°31' E 000°03'3 5.1
2018-Jan-18 15:30N 50°31' E 000°07'2 4.6
2018-Jan-18 15:00N 50°32' E 000°10'2 4.1
2018-Jan-18 14:30N 50°32' E 000°13'2 4.0
2018-Jan-18 14:00N 50°33' E 000°16'2 4.1
2018-Jan-18 13:30N 50°33' E 000°19'2 4.6
2018-Jan-18 13:00N 50°34' E 000°23'2 4.9
2018-Jan-18 12:30N 50°35' E 000°26'2 4.8
2018-Jan-18 12:00N 50°35' E 000°30'2 4.4
2018-Jan-18 11:30N 50°36' E 000°33'2 3.3
2018-Jan-18 11:00N 50°36' E 000°36'1 2.9
2018-Jan-18 10:30N 50°37' E 000°38'1 1.5
2018-Jan-18 10:00N 50°38' E 000°39'1 2.9
2018-Jan-18 09:30N 50°38' E 000°41'1 2.6
2018-Jan-18 09:00N 50°39' E 000°43'1 2.7
2018-Jan-18 08:30N 50°40' E 000°44'1 2.9
2018-Jan-18 08:00N 50°41' E 000°46'1 2.9
2018-Jan-18 07:30N 50°42' E 000°48'1 2.2
2018-Jan-18 07:00N 50°42' E 000°49'1 1.5
2018-Jan-18 06:30N 50°43' E 000°50'1 1.4
2018-Jan-18 06:01N 50°43' E 000°51'0 0.3
2018-Jan-18 05:30N 50°43' E 000°51'0 0.5
2018-Jan-18 05:01N 50°43' E 000°51'0 1.0
2018-Jan-18 04:30N 50°44' E 000°52'0 0.2
2018-Jan-18 04:00N 50°44' E 000°52'0 0.4
2018-Jan-18 03:31N 50°44' E 000°52'1 1.1
2018-Jan-18 03:01N 50°44' E 000°52'1 1.2
2018-Jan-18 02:31N 50°45' E 000°53'1 1.4
2018-Jan-18 02:01N 50°45' E 000°54'1 1.1
2018-Jan-18 01:31N 50°46' E 000°54'0 0.9
2018-Jan-18 01:01N 50°46' E 000°55'2 2.4
2018-Jan-18 00:01N 50°47' E 000°58'0 4.0
2018-Jan-17 23:58N 50°48' E 000°58'  
2018-Jan-12 14:57N 56°03' W 003°13'0 0.0
2018-Jan-12 14:27N 56°03' W 003°13'0 0.0
2018-Jan-12 14:00N 56°03' W 003°13'0 0.0
2018-Jan-12 13:30N 56°03' W 003°13'0 0.0
2018-Jan-12 13:00N 56°03' W 003°13'0 0.1
2018-Jan-12 12:30N 56°03' W 003°13'0 0.1
2018-Jan-12 11:54N 56°03' W 003°13'0 0.0
2018-Jan-12 11:27N 56°03' W 003°13'0 0.0
2018-Jan-12 11:00N 56°03' W 003°13'0 0.1
2018-Jan-12 10:30N 56°03' W 003°13'0 0.0
2018-Jan-12 10:00N 56°03' W 003°13'0 0.0
2018-Jan-12 09:30N 56°03' W 003°13'0 0.0
2018-Jan-12 09:00N 56°03' W 003°13'0 0.0
2018-Jan-12 08:27N 56°03' W 003°13'0 0.0
2018-Jan-12 07:59N 56°03' W 003°13'0 0.0
2018-Jan-12 07:20N 56°03' W 003°13'0 0.0
2018-Jan-12 06:59N 56°03' W 003°13'0 0.0
2018-Jan-12 06:29N 56°03' W 003°13'0 0.0
2018-Jan-12 05:59N 56°03' W 003°13'0 0.0
2018-Jan-12 05:26N 56°03' W 003°13'0 0.0
2018-Jan-12 04:59N 56°03' W 003°13'0 0.0
2018-Jan-12 04:29N 56°03' W 003°13'0 0.1
2018-Jan-12 03:59N 56°03' W 003°13'0 0.0
2018-Jan-12 03:29N 56°03' W 003°13'0 0.0
2018-Jan-12 02:59N 56°03' W 003°13'0 0.0
2018-Jan-12 02:29N 56°03' W 003°13'0 0.0
2018-Jan-12 01:59N 56°03' W 003°13'0 0.0
2018-Jan-12 01:29N 56°03' W 003°13'0 0.1
2018-Jan-12 00:59N 56°03' W 003°13'0 0.1
2018-Jan-12 00:23N 56°03' W 003°13'0 0.0
2018-Jan-11 23:59N 56°03' W 003°13'0 0.1
2018-Jan-11 23:26N 56°03' W 003°13'0 0.0
2018-Jan-11 22:59N 56°03' W 003°13'0 0.0
2018-Jan-11 22:29N 56°03' W 003°13'0 0.0
2018-Jan-11 21:59N 56°03' W 003°13'0 0.0
2018-Jan-11 21:29N 56°03' W 003°13'0 0.0
2018-Jan-11 20:59N 56°03' W 003°13'0 0.0
2018-Jan-11 20:29N 56°03' W 003°13'0 0.0
2018-Jan-11 20:00N 56°03' W 003°13'0 0.0
2018-Jan-11 19:30N 56°03' W 003°13'0 0.0
2018-Jan-11 19:00N 56°03' W 003°13'0 0.1
2018-Jan-11 18:30N 56°03' W 003°13'0 0.0
2018-Jan-11 18:00N 56°03' W 003°13'0 0.1
2018-Jan-11 17:30N 56°03' W 003°13'0 0.0
2018-Jan-11 17:00N 56°03' W 003°13'0 0.0
2018-Jan-11 16:30N 56°03' W 003°13'0 0.0
2018-Jan-11 16:00N 56°03' W 003°13'0 0.0
2018-Jan-11 15:30N 56°03' W 003°13'0 0.0
2018-Jan-11 15:00N 56°03' W 003°13'0 0.0
2018-Jan-11 14:30N 56°03' W 003°13'0 0.0
2018-Jan-11 13:57N 56°03' W 003°13'0 0.0
2018-Jan-11 13:30N 56°03' W 003°13'0 0.0
2018-Jan-11 13:00N 56°03' W 003°13'0 0.0
2018-Jan-11 12:30N 56°03' W 003°13'0 0.0
2018-Jan-11 12:00N 56°03' W 003°13'0 0.0
2018-Jan-11 11:30N 56°03' W 003°13'0 0.0
2018-Jan-11 11:00N 56°03' W 003°13'0 0.1
2018-Jan-11 10:30N 56°03' W 003°13'0 0.1
2018-Jan-11 10:00N 56°03' W 003°13'0 0.0
2018-Jan-11 09:30N 56°03' W 003°13'0 0.0
2018-Jan-11 09:00N 56°03' W 003°13'0 0.0
2018-Jan-11 08:27N 56°03' W 003°13'0 0.0
2018-Jan-11 08:00N 56°03' W 003°13'0 0.0
2018-Jan-11 07:30N 56°03' W 003°13'0 0.0
2018-Jan-11 06:57N 56°03' W 003°13'0 0.1
2018-Jan-11 06:30N 56°03' W 003°13'0 0.1
2018-Jan-11 06:00N 56°03' W 003°13'0 0.1
2018-Jan-11 05:30N 56°03' W 003°13'0 0.0
2018-Jan-11 05:00N 56°03' W 003°13'0 0.0
2018-Jan-11 04:30N 56°03' W 003°13'0 0.0
2018-Jan-11 04:00N 56°03' W 003°13'0 0.0
2018-Jan-11 03:27N 56°03' W 003°13'0 0.0
2018-Jan-11 02:57N 56°03' W 003°13'0 0.0
2018-Jan-11 02:30N 56°03' W 003°13'0 0.0
2018-Jan-11 02:00N 56°03' W 003°13'0 0.0
2018-Jan-11 01:30N 56°03' W 003°13'0 0.0
2018-Jan-11 01:00N 56°03' W 003°13'0 0.0
2018-Jan-11 00:30N 56°03' W 003°13'0 0.0
2018-Jan-11 00:00N 56°03' W 003°13'0 0.0
2018-Jan-10 23:30N 56°03' W 003°13'0 0.0
2018-Jan-10 23:00N 56°03' W 003°13'0 0.0
2018-Jan-10 22:30N 56°03' W 003°13'0 0.1
2018-Jan-10 21:57N 56°03' W 003°13'0 0.0
2018-Jan-10 21:30N 56°03' W 003°13'0 0.0
2018-Jan-10 21:00N 56°03' W 003°13'0 0.0
2018-Jan-10 20:30N 56°03' W 003°13'0 0.0
2018-Jan-10 20:00N 56°03' W 003°13'0 0.0
2018-Jan-10 19:30N 56°03' W 003°13'0 0.0
2018-Jan-10 18:57N 56°03' W 003°13'0 0.0
2018-Jan-10 18:30N 56°03' W 003°13'0 0.0
2018-Jan-10 17:57N 56°03' W 003°13'0 0.0
2018-Jan-10 17:27N 56°03' W 003°13'0 0.0
2018-Jan-10 17:00N 56°03' W 003°13'0 0.1
2018-Jan-10 16:30N 56°03' W 003°13'0 0.1
2018-Jan-10 16:00N 56°03' W 003°13'0 0.0
2018-Jan-10 15:30N 56°03' W 003°13'0 0.0
2018-Jan-10 15:00N 56°03' W 003°13'0 0.0
2018-Jan-10 14:30N 56°03' W 003°13'0 0.0
2018-Jan-10 14:00N 56°03' W 003°13'0 0.1
2018-Jan-10 13:30N 56°03' W 003°13'0 0.0
2018-Jan-10 13:00N 56°03' W 003°13'0 0.0
2018-Jan-10 12:30N 56°03' W 003°13'0 0.0
2018-Jan-10 12:00N 56°03' W 003°13'0 0.0
2018-Jan-10 11:30N 56°03' W 003°13'0 0.0
2018-Jan-10 11:00N 56°03' W 003°13'0 0.0
2018-Jan-10 10:30N 56°03' W 003°13'0 0.1
2018-Jan-10 10:00N 56°03' W 003°13'0 0.1
2018-Jan-10 09:30N 56°03' W 003°13'0 0.0
2018-Jan-10 09:00N 56°03' W 003°13'0 0.0
2018-Jan-10 08:30N 56°03' W 003°13'0 0.0
2018-Jan-10 08:00N 56°03' W 003°13'0 0.0
2018-Jan-10 07:30N 56°03' W 003°13'0 0.0
2018-Jan-10 07:00N 56°03' W 003°13'0 0.0
2018-Jan-10 06:30N 56°03' W 003°13'0 0.0
2018-Jan-10 06:00N 56°03' W 003°13'0 0.0
2018-Jan-10 05:30N 56°03' W 003°13'0 0.0
2018-Jan-10 05:00N 56°03' W 003°13'0 0.0
2018-Jan-10 04:30N 56°03' W 003°13'0 0.0
2018-Jan-10 04:00N 56°03' W 003°13'0 0.0
2018-Jan-10 03:30N 56°03' W 003°13'0 0.0
2018-Jan-10 03:00N 56°03' W 003°13'0 0.0
2018-Jan-10 02:30N 56°03' W 003°13'0 0.0
2018-Jan-10 02:00N 56°03' W 003°13'0 0.1
2018-Jan-10 01:30N 56°03' W 003°13'0 0.0
2018-Jan-10 01:00N 56°03' W 003°13'0 0.1
2018-Jan-10 00:30N 56°03' W 003°13'0 0.0
2018-Jan-10 00:00N 56°03' W 003°13'0 0.0
2018-Jan-09 23:30N 56°03' W 003°13'0 0.1
2018-Jan-09 23:00N 56°03' W 003°13'0 0.0
2018-Jan-09 22:30N 56°03' W 003°13'0 0.1
2018-Jan-09 22:00N 56°03' W 003°13'0 0.1
2018-Jan-09 21:30N 56°03' W 003°13'  
Track history (hours):
 
Tides and Currents Weather Stations Pressure Air Temp Water Temp Dewpoint Dewpoint Depression Visibility Wind Speed Wind Dir Waves Ship Positions

Blue Marlin

Last reported at 2018-Jan-19 21:00 UTC. Time now 2018-Jan-19 21:24 UTC.
Position N 49°59' W 002°54'.

Length 225 m; draft 14 m.

Type: Cargo ship. MMSI: 248314000.

Date/timePositionNaut miles runAvg speedWind from/ knotsBaromVisibWave heightAir tempDewpointWater temp
2018-Jan-19 21:00N 49°59' W 002°54'2 4.0
2018-Jan-19 20:30N 50°00' W 002°51'2 3.8
2018-Jan-19 20:00N 50°01' W 002°49'2 3.1
2018-Jan-19 19:30N 50°01' W 002°46'2 3.2
2018-Jan-19 19:00N 50°01' W 002°44'2 3.5
2018-Jan-19 18:30N 50°02' W 002°41'2 3.3
2018-Jan-19 18:00N 50°02' W 002°39'2 3.9
2018-Jan-19 17:30N 50°03' W 002°36'2 4.7
2018-Jan-19 17:00N 50°03' W 002°32'3 5.1
2018-Jan-19 16:30N 50°04' W 002°28'3 6.1
2018-Jan-19 16:00N 50°05' W 002°24'5 6.5
2018-Jan-19 15:12N 50°06' W 002°16'26 3.5
2018-Jan-19 07:47N 50°13' W 001°37'1 2.6
2018-Jan-19 07:21N 50°13' W 001°35'1 3.3
2018-Jan-19 06:58N 50°14' W 001°33'3 4.3
2018-Jan-19 06:23N 50°14' W 001°29'7 5.4
2018-Jan-19 05:09N 50°16' W 001°19'11 6.5
2018-Jan-19 03:25N 50°19' W 001°02'2 5.6
2018-Jan-19 03:00N 50°20' W 000°59'3 4.2
2018-Jan-19 02:15N 50°20' W 000°54'2 7.4
2018-Jan-19 01:56N 50°21' W 000°50'3 6.5
2018-Jan-19 01:29N 50°22' W 000°46'3 6.0
2018-Jan-19 00:56N 50°23' W 000°41'3 5.8
2018-Jan-19 00:30N 50°24' W 000°37'3 5.1
2018-Jan-18 23:55N 50°24' W 000°33'2 4.6
2018-Jan-18 23:22N 50°25' W 000°29'1 3.8
2018-Jan-18 23:00N 50°25' W 000°27'2 3.4
2018-Jan-18 22:30N 50°26' W 000°24'1 3.0
2018-Jan-18 22:00N 50°26' W 000°22'1 2.6
2018-Jan-18 21:30N 50°27' W 000°20'1 2.3
2018-Jan-18 20:58N 50°27' W 000°18'1 2.3
2018-Jan-18 20:30N 50°27' W 000°16'1 2.4
2018-Jan-18 20:00N 50°28' W 000°15'1 2.3
2018-Jan-18 19:30N 50°28' W 000°13'1 2.8
2018-Jan-18 19:00N 50°28' W 000°11'2 3.0
2018-Jan-18 18:30N 50°29' W 000°08'1 2.2
2018-Jan-18 18:00N 50°29' W 000°07'1 2.7
2018-Jan-18 17:30N 50°29' W 000°05'1 2.9
2018-Jan-18 17:00N 50°30' W 000°03'1 2.2
2018-Jan-18 16:30N 50°30' W 000°01'2 4.8
2018-Jan-18 16:00N 50°31' E 000°03'3 5.1
2018-Jan-18 15:30N 50°31' E 000°07'2 4.6
2018-Jan-18 15:00N 50°32' E 000°10'2 4.1
2018-Jan-18 14:30N 50°32' E 000°13'2 4.0
2018-Jan-18 14:00N 50°33' E 000°16'2 4.1
2018-Jan-18 13:30N 50°33' E 000°19'2 4.6
2018-Jan-18 13:00N 50°34' E 000°23'2 4.9
2018-Jan-18 12:30N 50°35' E 000°26'2 4.8
2018-Jan-18 12:00N 50°35' E 000°30'2 4.4
2018-Jan-18 11:30N 50°36' E 000°33'2 3.3
2018-Jan-18 11:00N 50°36' E 000°36'1 2.9
2018-Jan-18 10:30N 50°37' E 000°38'1 1.5
2018-Jan-18 10:00N 50°38' E 000°39'1 2.9
2018-Jan-18 09:30N 50°38' E 000°41'1 2.6
2018-Jan-18 09:00N 50°39' E 000°43'1 2.7
2018-Jan-18 08:30N 50°40' E 000°44'1 2.9
2018-Jan-18 08:00N 50°41' E 000°46'1 2.9
2018-Jan-18 07:30N 50°42' E 000°48'1 2.2
2018-Jan-18 07:00N 50°42' E 000°49'1 1.5
2018-Jan-18 06:30N 50°43' E 000°50'1 1.4
2018-Jan-18 06:01N 50°43' E 000°51'0 0.3
2018-Jan-18 05:30N 50°43' E 000°51'0 0.5
2018-Jan-18 05:01N 50°43' E 000°51'0 1.0
2018-Jan-18 04:30N 50°44' E 000°52'0 0.2
2018-Jan-18 04:00N 50°44' E 000°52'0 0.4
2018-Jan-18 03:31N 50°44' E 000°52'1 1.1
2018-Jan-18 03:01N 50°44' E 000°52'1 1.2
2018-Jan-18 02:31N 50°45' E 000°53'1 1.4
2018-Jan-18 02:01N 50°45' E 000°54'1 1.1
2018-Jan-18 01:31N 50°46' E 000°54'0 0.9
2018-Jan-18 01:01N 50°46' E 000°55'2 2.4
2018-Jan-18 00:01N 50°47' E 000°58'0 4.0
2018-Jan-17 23:58N 50°48' E 000°58'  
2018-Jan-12 14:57N 56°03' W 003°13'0 0.0
2018-Jan-12 14:27N 56°03' W 003°13'0 0.0
2018-Jan-12 14:00N 56°03' W 003°13'0 0.0
2018-Jan-12 13:30N 56°03' W 003°13'0 0.0
2018-Jan-12 13:00N 56°03' W 003°13'0 0.1
2018-Jan-12 12:30N 56°03' W 003°13'0 0.1
2018-Jan-12 11:54N 56°03' W 003°13'0 0.0
2018-Jan-12 11:27N 56°03' W 003°13'0 0.0
2018-Jan-12 11:00N 56°03' W 003°13'0 0.1
2018-Jan-12 10:30N 56°03' W 003°13'0 0.0
2018-Jan-12 10:00N 56°03' W 003°13'0 0.0
2018-Jan-12 09:30N 56°03' W 003°13'0 0.0
2018-Jan-12 09:00N 56°03' W 003°13'0 0.0
2018-Jan-12 08:27N 56°03' W 003°13'0 0.0
2018-Jan-12 07:59N 56°03' W 003°13'0 0.0
2018-Jan-12 07:20N 56°03' W 003°13'0 0.0
2018-Jan-12 06:59N 56°03' W 003°13'0 0.0
2018-Jan-12 06:29N 56°03' W 003°13'0 0.0
2018-Jan-12 05:59N 56°03' W 003°13'0 0.0
2018-Jan-12 05:26N 56°03' W 003°13'0 0.0
2018-Jan-12 04:59N 56°03' W 003°13'0 0.0
2018-Jan-12 04:29N 56°03' W 003°13'0 0.1
2018-Jan-12 03:59N 56°03' W 003°13'0 0.0
2018-Jan-12 03:29N 56°03' W 003°13'0 0.0
2018-Jan-12 02:59N 56°03' W 003°13'0 0.0
2018-Jan-12 02:29N 56°03' W 003°13'0 0.0
2018-Jan-12 01:59N 56°03' W 003°13'0 0.0
2018-Jan-12 01:29N 56°03' W 003°13'0 0.1
2018-Jan-12 00:59N 56°03' W 003°13'0 0.1
2018-Jan-12 00:23N 56°03' W 003°13'0 0.0
2018-Jan-11 23:59N 56°03' W 003°13'0 0.1
2018-Jan-11 23:26N 56°03' W 003°13'0 0.0
2018-Jan-11 22:59N 56°03' W 003°13'0 0.0
2018-Jan-11 22:29N 56°03' W 003°13'0 0.0
2018-Jan-11 21:59N 56°03' W 003°13'0 0.0
2018-Jan-11 21:29N 56°03' W 003°13'0 0.0
2018-Jan-11 20:59N 56°03' W 003°13'0 0.0
2018-Jan-11 20:29N 56°03' W 003°13'0 0.0
2018-Jan-11 20:00N 56°03' W 003°13'0 0.0
2018-Jan-11 19:30N 56°03' W 003°13'0 0.0
2018-Jan-11 19:00N 56°03' W 003°13'0 0.1
2018-Jan-11 18:30N 56°03' W 003°13'0 0.0
2018-Jan-11 18:00N 56°03' W 003°13'0 0.1
2018-Jan-11 17:30N 56°03' W 003°13'0 0.0
2018-Jan-11 17:00N 56°03' W 003°13'0 0.0
2018-Jan-11 16:30N 56°03' W 003°13'0 0.0
2018-Jan-11 16:00N 56°03' W 003°13'0 0.0
2018-Jan-11 15:30N 56°03' W 003°13'0 0.0
2018-Jan-11 15:00N 56°03' W 003°13'0 0.0
2018-Jan-11 14:30N 56°03' W 003°13'0 0.0
2018-Jan-11 13:57N 56°03' W 003°13'0 0.0
2018-Jan-11 13:30N 56°03' W 003°13'0 0.0
2018-Jan-11 13:00N 56°03' W 003°13'0 0.0
2018-Jan-11 12:30N 56°03' W 003°13'0 0.0
2018-Jan-11 12:00N 56°03' W 003°13'0 0.0
2018-Jan-11 11:30N 56°03' W 003°13'0 0.0
2018-Jan-11 11:00N 56°03' W 003°13'0 0.1
2018-Jan-11 10:30N 56°03' W 003°13'0 0.1
2018-Jan-11 10:00N 56°03' W 003°13'0 0.0
2018-Jan-11 09:30N 56°03' W 003°13'0 0.0
2018-Jan-11 09:00N 56°03' W 003°13'0 0.0
2018-Jan-11 08:27N 56°03' W 003°13'0 0.0
2018-Jan-11 08:00N 56°03' W 003°13'0 0.0
2018-Jan-11 07:30N 56°03' W 003°13'0 0.0
2018-Jan-11 06:57N 56°03' W 003°13'0 0.1
2018-Jan-11 06:30N 56°03' W 003°13'0 0.1
2018-Jan-11 06:00N 56°03' W 003°13'0 0.1
2018-Jan-11 05:30N 56°03' W 003°13'0 0.0
2018-Jan-11 05:00N 56°03' W 003°13'0 0.0
2018-Jan-11 04:30N 56°03' W 003°13'0 0.0
2018-Jan-11 04:00N 56°03' W 003°13'0 0.0
2018-Jan-11 03:27N 56°03' W 003°13'0 0.0
2018-Jan-11 02:57N 56°03' W 003°13'0 0.0
2018-Jan-11 02:30N 56°03' W 003°13'0 0.0
2018-Jan-11 02:00N 56°03' W 003°13'0 0.0
2018-Jan-11 01:30N 56°03' W 003°13'0 0.0
2018-Jan-11 01:00N 56°03' W 003°13'0 0.0
2018-Jan-11 00:30N 56°03' W 003°13'0 0.0
2018-Jan-11 00:00N 56°03' W 003°13'0 0.0
2018-Jan-10 23:30N 56°03' W 003°13'0 0.0
2018-Jan-10 23:00N 56°03' W 003°13'0 0.0
2018-Jan-10 22:30N 56°03' W 003°13'0 0.1
2018-Jan-10 21:57N 56°03' W 003°13'0 0.0
2018-Jan-10 21:30N 56°03' W 003°13'0 0.0
2018-Jan-10 21:00N 56°03' W 003°13'0 0.0
2018-Jan-10 20:30N 56°03' W 003°13'0 0.0
2018-Jan-10 20:00N 56°03' W 003°13'0 0.0
2018-Jan-10 19:30N 56°03' W 003°13'0 0.0
2018-Jan-10 18:57N 56°03' W 003°13'0 0.0
2018-Jan-10 18:30N 56°03' W 003°13'0 0.0
2018-Jan-10 17:57N 56°03' W 003°13'0 0.0
2018-Jan-10 17:27N 56°03' W 003°13'0 0.0
2018-Jan-10 17:00N 56°03' W 003°13'0 0.1
2018-Jan-10 16:30N 56°03' W 003°13'0 0.1
2018-Jan-10 16:00N 56°03' W 003°13'0 0.0
2018-Jan-10 15:30N 56°03' W 003°13'0 0.0
2018-Jan-10 15:00N 56°03' W 003°13'0 0.0
2018-Jan-10 14:30N 56°03' W 003°13'0 0.0
2018-Jan-10 14:00N 56°03' W 003°13'0 0.1
2018-Jan-10 13:30N 56°03' W 003°13'0 0.0
2018-Jan-10 13:00N 56°03' W 003°13'0 0.0
2018-Jan-10 12:30N 56°03' W 003°13'0 0.0
2018-Jan-10 12:00N 56°03' W 003°13'0 0.0
2018-Jan-10 11:30N 56°03' W 003°13'0 0.0
2018-Jan-10 11:00N 56°03' W 003°13'0 0.0
2018-Jan-10 10:30N 56°03' W 003°13'0 0.1
2018-Jan-10 10:00N 56°03' W 003°13'0 0.1
2018-Jan-10 09:30N 56°03' W 003°13'0 0.0
2018-Jan-10 09:00N 56°03' W 003°13'0 0.0
2018-Jan-10 08:30N 56°03' W 003°13'0 0.0
2018-Jan-10 08:00N 56°03' W 003°13'0 0.0
2018-Jan-10 07:30N 56°03' W 003°13'0 0.0
2018-Jan-10 07:00N 56°03' W 003°13'0 0.0
2018-Jan-10 06:30N 56°03' W 003°13'0 0.0
2018-Jan-10 06:00N 56°03' W 003°13'0 0.0
2018-Jan-10 05:30N 56°03' W 003°13'0 0.0
2018-Jan-10 05:00N 56°03' W 003°13'0 0.0
2018-Jan-10 04:30N 56°03' W 003°13'0 0.0
2018-Jan-10 04:00N 56°03' W 003°13'0 0.0
2018-Jan-10 03:30N 56°03' W 003°13'0 0.0
2018-Jan-10 03:00N 56°03' W 003°13'0 0.0
2018-Jan-10 02:30N 56°03' W 003°13'0 0.0
2018-Jan-10 02:00N 56°03' W 003°13'0 0.1
2018-Jan-10 01:30N 56°03' W 003°13'0 0.0
2018-Jan-10 01:00N 56°03' W 003°13'0 0.1
2018-Jan-10 00:30N 56°03' W 003°13'0 0.0
2018-Jan-10 00:00N 56°03' W 003°13'0 0.0
2018-Jan-09 23:30N 56°03' W 003°13'0 0.1
2018-Jan-09 23:00N 56°03' W 003°13'0 0.0
2018-Jan-09 22:30N 56°03' W 003°13'0 0.1
2018-Jan-09 22:00N 56°03' W 003°13'0 0.1
2018-Jan-09 21:30N 56°03' W 003°13'  

Dump ship's entire track history